sensor_id;sensor_type;location;lat;lon;timestamp;pressure;altitude;pressure_sealevel;temperature;humidity
31346;BME280;21711;49.708;18.568;2024-03-02T00:01:22;96652.66;;;9.29;100.00
31346;BME280;21711;49.708;18.568;2024-03-02T00:03:50;96652.88;;;9.33;100.00
31346;BME280;21711;49.708;18.568;2024-03-02T00:06:20;96646.28;;;9.60;100.00
31346;BME280;21711;49.708;18.568;2024-03-02T00:08:49;96652.28;;;9.41;100.00
31346;BME280;21711;49.708;18.568;2024-03-02T00:11:17;96654.00;;;9.27;100.00
31346;BME280;21711;49.708;18.568;2024-03-02T00:13:46;96642.84;;;9.35;100.00
31346;BME280;21711;49.708;18.568;2024-03-02T00:16:14;96654.53;;;9.53;100.00
31346;BME280;21711;49.708;18.568;2024-03-02T00:18:43;96657.16;;;9.53;100.00
31346;BME280;21711;49.708;18.568;2024-03-02T00:21:11;96664.78;;;9.30;100.00
31346;BME280;21711;49.708;18.568;2024-03-02T00:23:40;96662.56;;;9.13;100.00
31346;BME280;21711;49.708;18.568;2024-03-02T00:26:12;96659.47;;;9.06;100.00
31346;BME280;21711;49.708;18.568;2024-03-02T00:28:40;96650.50;;;9.07;100.00
31346;BME280;21711;49.708;18.568;2024-03-02T00:31:11;96644.41;;;9.06;100.00
31346;BME280;21711;49.708;18.568;2024-03-02T00:33:48;96638.88;;;9.08;100.00
31346;BME280;21711;49.708;18.568;2024-03-02T00:36:22;96646.41;;;9.20;100.00
31346;BME280;21711;49.708;18.568;2024-03-02T00:38:54;96644.13;;;9.38;100.00
31346;BME280;21711;49.708;18.568;2024-03-02T00:41:31;96651.88;;;9.53;100.00
31346;BME280;21711;49.708;18.568;2024-03-02T00:46:35;96645.13;;;9.17;100.00
31346;BME280;21711;49.708;18.568;2024-03-02T00:49:05;96640.25;;;9.00;100.00
31346;BME280;21711;49.708;18.568;2024-03-02T00:51:39;96649.06;;;8.85;100.00
31346;BME280;21711;49.708;18.568;2024-03-02T00:54:08;96647.81;;;8.77;100.00
31346;BME280;21711;49.708;18.568;2024-03-02T00:56:36;96645.41;;;8.81;100.00
31346;BME280;21711;49.708;18.568;2024-03-02T00:59:04;96649.88;;;8.86;100.00
31346;BME280;21711;49.708;18.568;2024-03-02T01:01:31;96650.00;;;9.00;100.00
31346;BME280;21711;49.708;18.568;2024-03-02T01:03:58;96648.91;;;9.06;100.00
31346;BME280;21711;49.708;18.568;2024-03-02T01:06:26;96637.66;;;9.25;100.00
31346;BME280;21711;49.708;18.568;2024-03-02T01:08:53;96638.66;;;9.29;100.00
31346;BME280;21711;49.708;18.568;2024-03-02T01:11:21;96635.47;;;9.32;100.00
31346;BME280;21711;49.708;18.568;2024-03-02T01:13:52;96641.31;;;9.29;100.00
31346;BME280;21711;49.708;18.568;2024-03-02T01:16:20;96634.97;;;9.30;100.00
31346;BME280;21711;49.708;18.568;2024-03-02T01:18:48;96639.78;;;9.23;100.00
31346;BME280;21711;49.708;18.568;2024-03-02T01:21:16;96639.78;;;9.23;100.00
31346;BME280;21711;49.708;18.568;2024-03-02T01:23:43;96624.47;;;9.25;100.00
31346;BME280;21711;49.708;18.568;2024-03-02T01:26:11;96635.94;;;9.10;100.00
31346;BME280;21711;49.708;18.568;2024-03-02T01:28:38;96624.00;;;8.88;100.00
31346;BME280;21711;49.708;18.568;2024-03-02T01:31:06;96625.06;;;8.87;100.00
31346;BME280;21711;49.708;18.568;2024-03-02T01:33:33;96626.94;;;8.81;100.00
31346;BME280;21711;49.708;18.568;2024-03-02T01:36:00;96618.47;;;8.89;100.00
31346;BME280;21711;49.708;18.568;2024-03-02T01:38:28;96621.56;;;8.97;100.00
31346;BME280;21711;49.708;18.568;2024-03-02T01:40:55;96615.88;;;8.84;100.00
31346;BME280;21711;49.708;18.568;2024-03-02T01:43:24;96616.72;;;8.79;100.00
31346;BME280;21711;49.708;18.568;2024-03-02T01:45:51;96615.69;;;8.75;100.00
31346;BME280;21711;49.708;18.568;2024-03-02T01:48:19;96615.72;;;8.70;100.00
31346;BME280;21711;49.708;18.568;2024-03-02T01:50:47;96615.06;;;8.54;100.00
31346;BME280;21711;49.708;18.568;2024-03-02T01:53:14;96620.25;;;8.64;100.00
31346;BME280;21711;49.708;18.568;2024-03-02T01:55:42;96611.13;;;8.81;100.00
31346;BME280;21711;49.708;18.568;2024-03-02T01:58:10;96609.25;;;8.87;100.00
31346;BME280;21711;49.708;18.568;2024-03-02T02:00:38;96608.66;;;8.95;100.00
31346;BME280;21711;49.708;18.568;2024-03-02T02:03:05;96621.53;;;9.02;100.00
31346;BME280;21711;49.708;18.568;2024-03-02T02:05:34;96612.63;;;8.92;100.00
31346;BME280;21711;49.708;18.568;2024-03-02T02:08:02;96614.63;;;8.76;100.00
31346;BME280;21711;49.708;18.568;2024-03-02T02:10:30;96613.59;;;8.72;100.00
31346;BME280;21711;49.708;18.568;2024-03-02T02:12:57;96610.78;;;8.63;100.00
31346;BME280;21711;49.708;18.568;2024-03-02T02:15:29;96604.88;;;8.72;100.00
31346;BME280;21711;49.708;18.568;2024-03-02T02:17:58;96608.81;;;8.79;100.00
31346;BME280;21711;49.708;18.568;2024-03-02T02:20:27;96607.78;;;8.75;100.00
31346;BME280;21711;49.708;18.568;2024-03-02T02:23:01;96612.88;;;8.61;100.00
31346;BME280;21711;49.708;18.568;2024-03-02T02:25:29;96613.84;;;8.71;100.00
31346;BME280;21711;49.708;18.568;2024-03-02T02:27:57;96612.53;;;8.73;100.00
31346;BME280;21711;49.708;18.568;2024-03-02T02:30:29;96613.50;;;8.82;100.00
31346;BME280;21711;49.708;18.568;2024-03-02T02:32:57;96605.38;;;9.08;100.00
31346;BME280;21711;49.708;18.568;2024-03-02T02:35:25;96603.44;;;9.14;100.00
31346;BME280;21711;49.708;18.568;2024-03-02T02:37:54;96604.75;;;9.17;100.00
31346;BME280;21711;49.708;18.568;2024-03-02T02:40:23;96602.09;;;9.17;100.00
31346;BME280;21711;49.708;18.568;2024-03-02T02:42:51;96603.75;;;9.13;100.00
31346;BME280;21711;49.708;18.568;2024-03-02T02:45:21;96606.19;;;9.04;100.00
31346;BME280;21711;49.708;18.568;2024-03-02T02:47:49;96598.28;;;9.04;100.00
31346;BME280;21711;49.708;18.568;2024-03-02T02:50:17;96604.41;;;8.99;100.00
31346;BME280;21711;49.708;18.568;2024-03-02T02:52:44;96598.38;;;8.93;100.00
31346;BME280;21711;49.708;18.568;2024-03-02T02:55:13;96598.94;;;8.90;100.00
31346;BME280;21711;49.708;18.568;2024-03-02T02:57:42;96598.66;;;8.92;100.00
31346;BME280;21711;49.708;18.568;2024-03-02T03:00:14;96596.81;;;8.92;100.00
31346;BME280;21711;49.708;18.568;2024-03-02T03:02:47;96607.16;;;8.84;100.00
31346;BME280;21711;49.708;18.568;2024-03-02T03:05:17;96608.22;;;8.82;100.00
31346;BME280;21711;49.708;18.568;2024-03-02T03:07:45;96615.06;;;8.84;100.00
31346;BME280;21711;49.708;18.568;2024-03-02T03:10:13;96612.25;;;8.75;100.00
31346;BME280;21711;49.708;18.568;2024-03-02T03:12:42;96617.13;;;8.57;100.00
31346;BME280;21711;49.708;18.568;2024-03-02T03:15:11;96612.97;;;8.46;100.00
31346;BME280;21711;49.708;18.568;2024-03-02T03:17:40;96621.66;;;8.46;100.00
31346;BME280;21711;49.708;18.568;2024-03-02T03:20:08;96620.06;;;8.45;100.00
31346;BME280;21711;49.708;18.568;2024-03-02T03:22:39;96618.22;;;8.46;100.00
31346;BME280;21711;49.708;18.568;2024-03-02T03:25:07;96621.09;;;8.49;100.00
31346;BME280;21711;49.708;18.568;2024-03-02T03:27:37;96632.16;;;8.57;100.00
31346;BME280;21711;49.708;18.568;2024-03-02T03:30:05;96627.97;;;8.55;100.00
31346;BME280;21711;49.708;18.568;2024-03-02T03:32:34;96620.81;;;8.56;100.00
31346;BME280;21711;49.708;18.568;2024-03-02T03:35:01;96617.69;;;8.49;100.00
31346;BME280;21711;49.708;18.568;2024-03-02T03:37:29;96624.56;;;8.45;100.00
31346;BME280;21711;49.708;18.568;2024-03-02T03:40:06;96622.97;;;8.49;100.00
31346;BME280;21711;49.708;18.568;2024-03-02T03:42:41;96619.25;;;8.50;100.00
31346;BME280;21711;49.708;18.568;2024-03-02T03:45:09;96626.06;;;8.61;100.00
31346;BME280;21711;49.708;18.568;2024-03-02T03:47:36;96622.88;;;8.64;100.00
31346;BME280;21711;49.708;18.568;2024-03-02T03:50:04;96622.88;;;8.64;100.00
31346;BME280;21711;49.708;18.568;2024-03-02T03:52:34;96618.91;;;8.67;100.00
31346;BME280;21711;49.708;18.568;2024-03-02T03:55:01;96605.72;;;8.67;100.00
31346;BME280;21711;49.708;18.568;2024-03-02T03:57:29;96615.94;;;8.74;100.00
31346;BME280;21711;49.708;18.568;2024-03-02T03:59:56;96610.25;;;8.61;100.00
31346;BME280;21711;49.708;18.568;2024-03-02T04:02:23;96612.38;;;8.59;100.00
31346;BME280;21711;49.708;18.568;2024-03-02T04:04:51;96601.88;;;8.54;100.00
31346;BME280;21711;49.708;18.568;2024-03-02T04:07:20;96604.97;;;8.61;100.00
31346;BME280;21711;49.708;18.568;2024-03-02T04:09:47;96603.66;;;8.59;100.00
31346;BME280;21711;49.708;18.568;2024-03-02T04:12:15;96607.88;;;8.60;100.00
31346;BME280;21711;49.708;18.568;2024-03-02T04:14:42;96608.66;;;8.60;100.00
31346;BME280;21711;49.708;18.568;2024-03-02T04:17:10;96598.56;;;8.73;100.00
31346;BME280;21711;49.708;18.568;2024-03-02T04:19:37;96597.72;;;8.77;100.00
31346;BME280;21711;49.708;18.568;2024-03-02T04:22:04;96600.03;;;8.84;100.00
31346;BME280;21711;49.708;18.568;2024-03-02T04:24:44;96603.28;;;8.76;100.00
31346;BME280;21711;49.708;18.568;2024-03-02T04:27:12;96610.28;;;8.91;100.00
31346;BME280;21711;49.708;18.568;2024-03-02T04:29:39;96606.56;;;8.92;100.00
31346;BME280;21711;49.708;18.568;2024-03-02T04:32:07;96609.72;;;8.94;100.00
31346;BME280;21711;49.708;18.568;2024-03-02T04:34:34;96604.78;;;8.87;100.00
31346;BME280;21711;49.708;18.568;2024-03-02T04:37:01;96615.06;;;8.89;100.00
31346;BME280;21711;49.708;18.568;2024-03-02T04:39:29;96606.63;;;8.87;100.00
31346;BME280;21711;49.708;18.568;2024-03-02T04:41:56;96619.53;;;8.88;100.00
31346;BME280;21711;49.708;18.568;2024-03-02T04:44:24;96619.97;;;8.95;100.00
31346;BME280;21711;49.708;18.568;2024-03-02T04:46:51;96615.53;;;8.91;100.00
31346;BME280;21711;49.708;18.568;2024-03-02T04:49:19;96616.28;;;8.97;100.00
31346;BME280;21711;49.708;18.568;2024-03-02T04:51:46;96616.78;;;8.99;100.00
31346;BME280;21711;49.708;18.568;2024-03-02T04:54:14;96615.41;;;9.06;100.00
31346;BME280;21711;49.708;18.568;2024-03-02T04:56:41;96611.88;;;9.16;100.00
31346;BME280;21711;49.708;18.568;2024-03-02T04:59:17;96609.47;;;9.20;100.00
31346;BME280;21711;49.708;18.568;2024-03-02T05:01:45;96612.81;;;9.31;100.00
31346;BME280;21711;49.708;18.568;2024-03-02T05:04:14;96617.81;;;9.32;100.00
31346;BME280;21711;49.708;18.568;2024-03-02T05:06:42;96626.91;;;9.45;100.00
31346;BME280;21711;49.708;18.568;2024-03-02T05:09:09;96623.59;;;9.59;100.00
31346;BME280;21711;49.708;18.568;2024-03-02T05:11:37;96625.44;;;9.58;100.00
31346;BME280;21711;49.708;18.568;2024-03-02T05:14:07;96623.59;;;9.59;100.00
31346;BME280;21711;49.708;18.568;2024-03-02T05:16:38;96633.22;;;9.69;100.00
31346;BME280;21711;49.708;18.568;2024-03-02T05:19:05;96633.97;;;9.74;100.00
31346;BME280;21711;49.708;18.568;2024-03-02T05:21:35;96633.91;;;9.80;100.00
31346;BME280;21711;49.708;18.568;2024-03-02T05:24:03;96635.47;;;9.81;100.00
31346;BME280;21711;49.708;18.568;2024-03-02T05:26:31;96630.91;;;9.67;100.00
31346;BME280;21711;49.708;18.568;2024-03-02T05:28:58;96632.88;;;9.76;100.00
31346;BME280;21711;49.708;18.568;2024-03-02T05:31:25;96640.94;;;9.90;100.00
31346;BME280;21711;49.708;18.568;2024-03-02T05:33:53;96638.00;;;9.91;100.00
31346;BME280;21711;49.708;18.568;2024-03-02T05:36:24;96639.78;;;9.96;100.00
31346;BME280;21711;49.708;18.568;2024-03-02T05:38:52;96636.25;;;10.06;100.00
31346;BME280;21711;49.708;18.568;2024-03-02T05:41:19;96638.22;;;10.14;100.00
31346;BME280;21711;49.708;18.568;2024-03-02T05:43:47;96627.19;;;10.31;100.00
31346;BME280;21711;49.708;18.568;2024-03-02T05:46:14;96633.09;;;10.42;100.00
31346;BME280;21711;49.708;18.568;2024-03-02T05:48:42;96635.25;;;10.40;100.00
31346;BME280;21711;49.708;18.568;2024-03-02T05:51:09;96636.09;;;10.35;100.00
31346;BME280;21711;49.708;18.568;2024-03-02T05:53:36;96647.47;;;10.36;100.00
31346;BME280;21711;49.708;18.568;2024-03-02T05:56:06;96649.25;;;10.21;100.00
31346;BME280;21711;49.708;18.568;2024-03-02T05:58:33;96647.22;;;10.13;100.00
31346;BME280;21711;49.708;18.568;2024-03-02T06:01:15;96652.09;;;10.06;100.00
31346;BME280;21711;49.708;18.568;2024-03-02T06:03:42;96655.78;;;10.05;100.00
31346;BME280;21711;49.708;18.568;2024-03-02T06:06:10;96662.53;;;10.16;100.00
31346;BME280;21711;49.708;18.568;2024-03-02T06:08:38;96664.56;;;10.19;100.00
31346;BME280;21711;49.708;18.568;2024-03-02T06:11:05;96667.66;;;10.26;100.00
31346;BME280;21711;49.708;18.568;2024-03-02T06:13:33;96664.19;;;10.31;100.00
31346;BME280;21711;49.708;18.568;2024-03-02T06:16:00;96666.69;;;10.42;100.00
31346;BME280;21711;49.708;18.568;2024-03-02T06:18:28;96670.38;;;10.40;100.00
31346;BME280;21711;49.708;18.568;2024-03-02T06:20:55;96672.63;;;10.52;100.00
31346;BME280;21711;49.708;18.568;2024-03-02T06:23:23;96672.63;;;10.52;100.00
31346;BME280;21711;49.708;18.568;2024-03-02T06:25:50;96673.94;;;10.55;100.00
31346;BME280;21711;49.708;18.568;2024-03-02T06:28:18;96675.06;;;10.49;100.00
31346;BME280;21711;49.708;18.568;2024-03-02T06:30:46;96684.00;;;10.53;100.00
31346;BME280;21711;49.708;18.568;2024-03-02T06:33:13;96685.00;;;10.57;100.00
31346;BME280;21711;49.708;18.568;2024-03-02T06:35:41;96682.63;;;10.56;100.00
31346;BME280;21711;49.708;18.568;2024-03-02T06:38:08;96685.47;;;10.59;100.00
31346;BME280;21711;49.708;18.568;2024-03-02T06:40:35;96687.28;;;10.64;100.00
31346;BME280;21711;49.708;18.568;2024-03-02T06:43:05;96681.84;;;10.74;100.00
31346;BME280;21711;49.708;18.568;2024-03-02T06:45:33;96684.69;;;10.78;100.00
31346;BME280;21711;49.708;18.568;2024-03-02T06:48:01;96687.13;;;10.74;100.00
31346;BME280;21711;49.708;18.568;2024-03-02T06:50:29;96700.50;;;10.64;100.00
31346;BME280;21711;49.708;18.568;2024-03-02T06:52:57;96692.34;;;10.79;100.00
31346;BME280;21711;49.708;18.568;2024-03-02T06:55:25;96696.06;;;10.78;100.00
31346;BME280;21711;49.708;18.568;2024-03-02T06:57:52;96699.00;;;10.77;100.00
31346;BME280;21711;49.708;18.568;2024-03-02T07:00:20;96701.56;;;10.82;100.00
31346;BME280;21711;49.708;18.568;2024-03-02T07:02:48;96699.50;;;10.79;100.00
31346;BME280;21711;49.708;18.568;2024-03-02T07:05:15;96698.22;;;10.76;100.00
31346;BME280;21711;49.708;18.568;2024-03-02T07:07:42;96702.09;;;10.98;100.00
31346;BME280;21711;49.708;18.568;2024-03-02T07:10:10;96692.59;;;10.97;100.00
31346;BME280;21711;49.708;18.568;2024-03-02T07:12:38;96697.53;;;11.04;100.00
31346;BME280;21711;49.708;18.568;2024-03-02T07:15:06;96705.00;;;11.16;100.00
31346;BME280;21711;49.708;18.568;2024-03-02T07:17:34;96707.13;;;11.33;100.00
31346;BME280;21711;49.708;18.568;2024-03-02T07:20:01;96705.94;;;11.39;100.00
31346;BME280;21711;49.708;18.568;2024-03-02T07:22:29;96706.63;;;11.31;100.00
31346;BME280;21711;49.708;18.568;2024-03-02T07:24:56;96711.06;;;11.50;100.00
31346;BME280;21711;49.708;18.568;2024-03-02T07:27:24;96712.09;;;11.68;100.00
31346;BME280;21711;49.708;18.568;2024-03-02T07:29:52;96710.22;;;11.82;100.00
31346;BME280;21711;49.708;18.568;2024-03-02T07:32:19;96707.09;;;11.94;100.00
31346;BME280;21711;49.708;18.568;2024-03-02T07:34:46;96715.13;;;12.03;100.00
31346;BME280;21711;49.708;18.568;2024-03-02T07:37:14;96706.19;;;11.85;100.00
31346;BME280;21711;49.708;18.568;2024-03-02T07:39:41;96721.09;;;11.81;100.00
31346;BME280;21711;49.708;18.568;2024-03-02T07:42:09;96721.53;;;11.88;99.53
31346;BME280;21711;49.708;18.568;2024-03-02T07:44:36;96726.72;;;12.07;97.86
31346;BME280;21711;49.708;18.568;2024-03-02T07:47:06;96725.53;;;12.14;98.12
31346;BME280;21711;49.708;18.568;2024-03-02T07:49:34;96730.22;;;12.45;97.43
31346;BME280;21711;49.708;18.568;2024-03-02T07:52:02;96726.69;;;12.49;93.16
31346;BME280;21711;49.708;18.568;2024-03-02T07:54:30;96725.84;;;12.77;91.83
31346;BME280;21711;49.708;18.568;2024-03-02T07:56:57;96727.66;;;12.91;95.11
31346;BME280;21711;49.708;18.568;2024-03-02T07:59:26;96727.44;;;13.01;94.66
31346;BME280;21711;49.708;18.568;2024-03-02T08:01:53;96728.06;;;13.07;91.12
31346;BME280;21711;49.708;18.568;2024-03-02T08:04:22;96738.63;;;12.98;91.30
31346;BME280;21711;49.708;18.568;2024-03-02T08:06:50;96738.19;;;12.82;95.75
31346;BME280;21711;49.708;18.568;2024-03-02T08:09:18;96733.50;;;12.79;91.31
31346;BME280;21711;49.708;18.568;2024-03-02T08:11:45;96733.31;;;12.75;94.05
31346;BME280;21711;49.708;18.568;2024-03-02T08:14:12;96734.97;;;12.71;92.71
31346;BME280;21711;49.708;18.568;2024-03-02T08:16:40;96734.91;;;12.62;91.79
31346;BME280;21711;49.708;18.568;2024-03-02T08:19:08;96736.47;;;12.63;93.58
31346;BME280;21711;49.708;18.568;2024-03-02T08:21:36;96743.28;;;12.55;92.23
31346;BME280;21711;49.708;18.568;2024-03-02T08:24:04;96739.34;;;12.53;93.49
31346;BME280;21711;49.708;18.568;2024-03-02T08:26:32;96747.09;;;12.63;94.20
31346;BME280;21711;49.708;18.568;2024-03-02T08:28:59;96744.88;;;12.79;95.37
31346;BME280;21711;49.708;18.568;2024-03-02T08:31:29;96746.78;;;12.79;92.24
31346;BME280;21711;49.708;18.568;2024-03-02T08:33:57;96744.06;;;12.56;96.44
31346;BME280;21711;49.708;18.568;2024-03-02T08:36:26;96749.28;;;12.47;96.20
31346;BME280;21711;49.708;18.568;2024-03-02T08:38:53;96751.94;;;12.19;96.97
31346;BME280;21711;49.708;18.568;2024-03-02T08:41:21;96742.22;;;12.42;97.31
31346;BME280;21711;49.708;18.568;2024-03-02T08:43:48;96745.34;;;12.58;93.79
31346;BME280;21711;49.708;18.568;2024-03-02T08:46:16;96750.31;;;12.74;96.42
31346;BME280;21711;49.708;18.568;2024-03-02T08:48:43;96753.47;;;13.22;95.82
31346;BME280;21711;49.708;18.568;2024-03-02T08:51:11;96749.72;;;13.23;91.62
31346;BME280;21711;49.708;18.568;2024-03-02T08:53:39;96751.06;;;13.34;87.37
31346;BME280;21711;49.708;18.568;2024-03-02T08:56:06;96750.16;;;13.39;89.21
31346;BME280;21711;49.708;18.568;2024-03-02T08:58:34;96748.44;;;13.57;86.53
31346;BME280;21711;49.708;18.568;2024-03-02T09:01:02;96749.19;;;13.58;86.14
31346;BME280;21711;49.708;18.568;2024-03-02T09:03:29;96751.97;;;13.29;86.74
31346;BME280;21711;49.708;18.568;2024-03-02T09:06:00;96746.97;;;13.51;86.82
31346;BME280;21711;49.708;18.568;2024-03-02T09:08:27;96751.50;;;13.82;85.95
31346;BME280;21711;49.708;18.568;2024-03-02T09:10:55;96748.69;;;13.78;85.29
31346;BME280;21711;49.708;18.568;2024-03-02T09:13:23;96752.38;;;13.68;84.74
31346;BME280;21711;49.708;18.568;2024-03-02T09:15:51;96752.25;;;13.74;85.73
31346;BME280;21711;49.708;18.568;2024-03-02T09:18:19;96751.66;;;13.77;87.49
31346;BME280;21711;49.708;18.568;2024-03-02T09:20:46;96754.69;;;13.61;89.62
31346;BME280;21711;49.708;18.568;2024-03-02T09:23:14;96749.47;;;13.47;91.12
31346;BME280;21711;49.708;18.568;2024-03-02T09:25:41;96752.97;;;13.65;92.89
31346;BME280;21711;49.708;18.568;2024-03-02T09:28:09;96756.91;;;13.68;90.67
31346;BME280;21711;49.708;18.568;2024-03-02T09:30:37;96750.47;;;13.60;89.46
31346;BME280;21711;49.708;18.568;2024-03-02T09:33:05;96750.72;;;13.50;89.07
31346;BME280;21711;49.708;18.568;2024-03-02T09:35:35;96758.22;;;13.48;89.79
31346;BME280;21711;49.708;18.568;2024-03-02T09:38:03;96757.16;;;13.35;90.16
31346;BME280;21711;49.708;18.568;2024-03-02T09:40:31;96759.69;;;13.40;91.60
31346;BME280;21711;49.708;18.568;2024-03-02T09:42:59;96767.34;;;13.41;92.90
31346;BME280;21711;49.708;18.568;2024-03-02T09:45:27;96767.06;;;13.66;93.38
31346;BME280;21711;49.708;18.568;2024-03-02T09:47:55;96763.44;;;13.62;90.24
31346;BME280;21711;49.708;18.568;2024-03-02T09:50:22;96766.31;;;13.74;92.29
31346;BME280;21711;49.708;18.568;2024-03-02T09:52:50;96768.72;;;13.85;94.04
31346;BME280;21711;49.708;18.568;2024-03-02T09:55:19;96772.78;;;13.82;91.43
31346;BME280;21711;49.708;18.568;2024-03-02T09:57:46;96761.91;;;13.70;89.49
31346;BME280;21711;49.708;18.568;2024-03-02T10:00:16;96773.06;;;13.80;90.63
31346;BME280;21711;49.708;18.568;2024-03-02T10:02:44;96772.50;;;13.92;91.02
31346;BME280;21711;49.708;18.568;2024-03-02T10:05:11;96769.53;;;13.94;91.08
31346;BME280;21711;49.708;18.568;2024-03-02T10:07:39;96778.03;;;14.05;92.65
31346;BME280;21711;49.708;18.568;2024-03-02T10:10:14;96782.63;;;14.22;92.71
31346;BME280;21711;49.708;18.568;2024-03-02T10:12:42;96775.31;;;14.37;91.24
31346;BME280;21711;49.708;18.568;2024-03-02T10:15:10;96785.31;;;14.40;89.78
31346;BME280;21711;49.708;18.568;2024-03-02T10:17:37;96783.50;;;14.67;90.31
31346;BME280;21711;49.708;18.568;2024-03-02T10:20:25;96776.31;;;14.67;88.91
31346;BME280;21711;49.708;18.568;2024-03-02T10:22:53;96778.63;;;14.51;nan
31346;BME280;21711;49.708;18.568;2024-03-02T10:25:33;96776.88;;;14.46;88.06
31346;BME280;21711;49.708;18.568;2024-03-02T10:28:04;96777.81;;;14.33;87.31
31346;BME280;21711;49.708;18.568;2024-03-02T10:30:35;96774.81;;;14.34;88.18
31346;BME280;21711;49.708;18.568;2024-03-02T10:33:03;96782.81;;;14.34;85.67
31346;BME280;21711;49.708;18.568;2024-03-02T10:35:33;96784.78;;;14.20;90.47
31346;BME280;21711;49.708;18.568;2024-03-02T10:38:06;96781.88;;;14.39;86.32
31346;BME280;21711;49.708;18.568;2024-03-02T10:40:34;96784.31;;;14.09;87.15
31346;BME280;21711;49.708;18.568;2024-03-02T10:43:02;96777.59;;;13.80;91.19
31346;BME280;21711;49.708;18.568;2024-03-02T10:45:33;96785.50;;;13.62;88.35
31346;BME280;21711;49.708;18.568;2024-03-02T10:48:02;96780.91;;;13.54;86.66
31346;BME280;21711;49.708;18.568;2024-03-02T10:50:33;96780.59;;;13.56;92.60
31346;BME280;21711;49.708;18.568;2024-03-02T10:53:00;96787.63;;;13.37;93.67
31346;BME280;21711;49.708;18.568;2024-03-02T10:55:28;96785.72;;;13.29;95.88
31346;BME280;21711;49.708;18.568;2024-03-02T10:57:59;96781.84;;;13.12;96.54
31346;BME280;21711;49.708;18.568;2024-03-02T11:00:34;96786.13;;;13.22;97.25
31346;BME280;21711;49.708;18.568;2024-03-02T11:03:07;96780.63;;;13.41;98.52
31346;BME280;21711;49.708;18.568;2024-03-02T11:05:40;96785.25;;;13.50;100.00
31346;BME280;21711;49.708;18.568;2024-03-02T11:08:16;96782.63;;;13.59;100.00
31346;BME280;21711;49.708;18.568;2024-03-02T11:10:51;96777.94;;;13.56;100.00
31346;BME280;21711;49.708;18.568;2024-03-02T11:13:32;96779.31;;;13.76;100.00
31346;BME280;21711;49.708;18.568;2024-03-02T11:16:15;96775.50;;;13.68;100.00
31346;BME280;21711;49.708;18.568;2024-03-02T11:18:45;96779.50;;;13.57;100.00
31346;BME280;21711;49.708;18.568;2024-03-02T11:21:13;96789.72;;;13.63;100.00
31346;BME280;21711;49.708;18.568;2024-03-02T11:23:41;96773.41;;;13.56;100.00
31346;BME280;21711;49.708;18.568;2024-03-02T11:26:21;96768.09;;;13.33;100.00
31346;BME280;21711;49.708;18.568;2024-03-02T11:28:50;96769.78;;;13.06;100.00
31346;BME280;21711;49.708;18.568;2024-03-02T11:31:18;96771.28;;;12.98;100.00
31346;BME280;21711;49.708;18.568;2024-03-02T11:33:46;96764.47;;;13.06;100.00
31346;BME280;21711;49.708;18.568;2024-03-02T11:36:13;96767.00;;;13.11;100.00
31346;BME280;21711;49.708;18.568;2024-03-02T11:38:43;96759.88;;;12.98;100.00
31346;BME280;21711;49.708;18.568;2024-03-02T11:41:13;96768.13;;;12.96;100.00
31346;BME280;21711;49.708;18.568;2024-03-02T11:43:42;96767.50;;;12.76;100.00
31346;BME280;21711;49.708;18.568;2024-03-02T11:46:11;96767.69;;;12.80;100.00
31346;BME280;21711;49.708;18.568;2024-03-02T11:48:40;96764.72;;;12.82;100.00
31346;BME280;21711;49.708;18.568;2024-03-02T11:51:08;96762.00;;;12.73;100.00
31346;BME280;21711;49.708;18.568;2024-03-02T11:53:35;96761.50;;;12.71;100.00
31346;BME280;21711;49.708;18.568;2024-03-02T11:56:06;96764.38;;;12.60;100.00
31346;BME280;21711;49.708;18.568;2024-03-02T11:58:37;96762.97;;;12.77;100.00
31346;BME280;21711;49.708;18.568;2024-03-02T12:01:06;96764.97;;;12.71;100.00
31346;BME280;21711;49.708;18.568;2024-03-02T12:03:34;96763.56;;;12.74;100.00
31346;BME280;21711;49.708;18.568;2024-03-02T12:06:03;96761.59;;;12.80;100.00
31346;BME280;21711;49.708;18.568;2024-03-02T12:08:31;96763.69;;;12.69;100.00
31346;BME280;21711;49.708;18.568;2024-03-02T12:11:01;96763.47;;;12.79;100.00
31346;BME280;21711;49.708;18.568;2024-03-02T12:13:31;96759.53;;;12.76;100.00
31346;BME280;21711;49.708;18.568;2024-03-02T12:15:58;96763.09;;;12.58;100.00
31346;BME280;21711;49.708;18.568;2024-03-02T12:18:26;96755.25;;;12.67;100.00
31346;BME280;21711;49.708;18.568;2024-03-02T12:20:54;96763.91;;;12.58;100.00
31346;BME280;21711;49.708;18.568;2024-03-02T12:23:26;96759.00;;;12.38;100.00
31346;BME280;21711;49.708;18.568;2024-03-02T12:25:54;96762.56;;;12.33;100.00
31346;BME280;21711;49.708;18.568;2024-03-02T12:28:21;96763.34;;;12.33;100.00
31346;BME280;21711;49.708;18.568;2024-03-02T12:30:49;96764.03;;;12.25;100.00
31346;BME280;21711;49.708;18.568;2024-03-02T12:33:17;96771.06;;;11.88;100.00
31346;BME280;21711;49.708;18.568;2024-03-02T12:35:45;96765.66;;;11.79;100.00
31346;BME280;21711;49.708;18.568;2024-03-02T12:38:12;96761.25;;;11.88;100.00
31346;BME280;21711;49.708;18.568;2024-03-02T12:40:40;96757.13;;;11.96;100.00
31346;BME280;21711;49.708;18.568;2024-03-02T12:43:08;96770.78;;;12.03;100.00
31346;BME280;21711;49.708;18.568;2024-03-02T12:45:36;96762.75;;;12.22;100.00
31346;BME280;21711;49.708;18.568;2024-03-02T12:48:05;96757.84;;;12.30;100.00
31346;BME280;21711;49.708;18.568;2024-03-02T12:50:33;96752.66;;;12.39;100.00
31346;BME280;21711;49.708;18.568;2024-03-02T12:53:01;96757.84;;;12.30;100.00
31346;BME280;21711;49.708;18.568;2024-03-02T12:55:30;96752.75;;;12.19;100.00
31346;BME280;21711;49.708;18.568;2024-03-02T12:57:57;96749.41;;;12.28;100.00